Pouch Cove, Canada
Current Conditions -  °F | °C
As of 1:00 PM on Tuesday 27 Jan 2015 (Local Time) from CYYT Reporting Station
Overcast Overcast  
Wind Chill:   Ceiling: 11000
Heat Index: 21°   Visibility: 15mi
Dew Point: 14°   Wind: 16mph
Humidity: 74%   Direction: 80°E
Pressure: 30.38"   Gusts: 25mph
Location:  47.76°N, 52.76°W
Report Text: CYYT 271600Z 08014G22KT 15SM SCT018 OVC110 M06/M10 A3038 RMK SC3AC5 SLP296
Loading
Personal Weather Stations






























Interactive Weather Map New forecast layout! Learn more

10-Day Weather Forecast

Advertisements
Track Severe Weather on mobile